Aalborg, Denmark

1:32 PM CET on March 06, 2015 (GMT +0100)
Aalborg | Change Station
CLOSE
Current Station
Airport
Location: Aalborg,
Elevation: 10 ft
Nearby Weather Stations

Elev 10 ft 57.10 °N, 9.85 °E | Updated 12 minutes ago

Scattered Clouds
Scattered Clouds
48 °F
Feels Like 48 °F
N
12
Wind Variable Wind from West

Today
High -- | Low -- °F
--% Chance of Precip.
Yesterday
High -- | Low -- °F
Precip. -- in
7:01 AM 6:03 PM
Waxing Gibbous, 99% visible
Pressure 30.27 in
Visibility 6.2 miles
Clouds Scattered Clouds 1700 ft
Dew Point 43 °F
Humidity 82%
Rainfall 0.00 in
Snow Depth Not available.
UV 2 out of 12
Pollen Not available.
Air Quality Not available.
Flu Activity Not available.
METAR EKYT 061220Z 27010KT 9999 SCT017 09/06 Q1025

More Conditions Fewer Conditions

Pressure 30.27 in
Visibility 6.2 miles
Clouds Scattered Clouds 1700 ft
Dew Point 43 °F
Humidity 82%
Rainfall 0.00 in
Snow Depth Not available.
UV 2 out of 12
Pollen Not available.
Air Quality Not available.
Flu Activity Not available.
METAR EKYT 061220Z 27010KT 9999 SCT017 09/06 Q1025

More Conditions Fewer Conditions

10-Day Weather Forecast

Almanac

Astronomy

Mar. 06, 2015 Rise Set
Actual Time
Civil Twilight
Nautical Twilight
Astronomical Twilight
Moon
Length of Visible Light
Length of Day
Tomorrow will be .
, % of the Moon is Illuminated

Today's Extremes

Country Highs Country Lows

Community

WunderPhotos

Upload Photos

1,803,245 photos uploaded!

WunderBlogs® & News

Nearby

Air Quality

  Air Quality AQ Index Pollutant
Not available.

Snow Depth

Station Depth Elevation

Earthquake Activity

City Distance Mag. Time & Date
Minimum magnitude displayed is 2.5.

Coastal Water Temperatures

Place Temperature

Nearby Weather Stations